createdAt,value
2018-08-23T00:01:01.643Z,38.87
2018-08-23T00:03:29.626Z,40.10
2018-08-23T00:05:57.612Z,39.13
2018-08-23T00:08:25.846Z,38.97
2018-08-23T00:10:54.520Z,39.13
2018-08-23T00:13:22.779Z,39.53
2018-08-23T00:15:51.099Z,38.50
2018-08-23T00:18:19.069Z,39.40
2018-08-23T00:20:47.033Z,40.53
2018-08-23T00:23:15.023Z,39.97
2018-08-23T00:25:43.027Z,39.47
2018-08-23T00:28:11.205Z,39.43
2018-08-23T00:30:39.199Z,39.00
2018-08-23T00:33:07.173Z,38.40
2018-08-23T00:35:36.268Z,39.67
2018-08-23T00:38:05.056Z,38.47
2018-08-23T00:40:38.366Z,39.50
2018-08-23T00:43:07.459Z,39.27
2018-08-23T00:45:35.412Z,39.07
2018-08-23T00:48:03.376Z,40.23
2018-08-23T00:50:46.173Z,38.53
2018-08-23T00:53:14.480Z,38.50
2018-08-23T00:55:42.468Z,38.53
2018-08-23T00:58:10.427Z,39.13
2018-08-23T01:00:38.456Z,38.17
2018-08-23T01:03:06.407Z,38.77
2018-08-23T01:05:36.513Z,38.23
2018-08-23T01:08:04.785Z,37.17
2018-08-23T01:10:32.734Z,38.10
2018-08-23T01:13:02.597Z,39.13
2018-08-23T01:15:31.733Z,37.87
2018-08-23T01:18:08.077Z,38.50
2018-08-23T01:20:36.245Z,36.83
2018-08-23T01:23:04.271Z,37.90
2018-08-23T01:25:35.314Z,39.67
2018-08-23T01:28:03.297Z,40.03
2018-08-23T01:30:31.277Z,38.83
2018-08-23T01:32:59.321Z,39.50
2018-08-23T01:35:27.698Z,39.37
2018-08-23T01:37:55.647Z,40.30
2018-08-23T01:40:23.653Z,38.90
2018-08-23T01:42:51.673Z,38.57
2018-08-23T01:45:20.230Z,39.80
2018-08-23T01:47:53.069Z,40.07
2018-08-23T01:50:21.074Z,41.03
2018-08-23T01:52:50.402Z,42.33
2018-08-23T01:55:19.293Z,40.63
2018-08-23T01:57:47.562Z,41.27
2018-08-23T02:00:18.213Z,40.73
2018-08-23T02:02:46.214Z,40.70
2018-08-23T02:05:14.203Z,40.87
2018-08-23T02:07:42.178Z,43.37
2018-08-23T02:10:10.170Z,41.40
2018-08-23T02:12:38.127Z,42.07
2018-08-23T02:15:06.854Z,41.63
2018-08-23T02:17:37.530Z,42.73
2018-08-23T02:20:05.527Z,42.70
2018-08-23T02:22:33.498Z,43.50
2018-08-23T02:25:01.479Z,41.87
2018-08-23T02:27:29.442Z,40.80
2018-08-23T02:29:57.454Z,42.23
2018-08-23T02:32:25.439Z,42.00
2018-08-23T02:34:57.867Z,42.77
2018-08-23T02:37:25.872Z,43.43
2018-08-23T02:39:53.886Z,41.63
2018-08-23T02:42:21.843Z,41.67
2018-08-23T02:44:49.815Z,40.70
2018-08-23T02:47:17.771Z,41.07
2018-08-23T02:49:45.743Z,41.27
2018-08-23T02:52:13.707Z,40.07
2018-08-23T02:54:41.663Z,40.67
2018-08-23T02:57:10.423Z,42.40
2018-08-23T02:59:38.403Z,42.03
2018-08-23T03:02:13.292Z,40.90
2018-08-23T03:04:41.273Z,41.87
2018-08-23T03:09:44.634Z,41.93
2018-08-23T03:12:15.946Z,42.67
2018-08-23T03:14:43.923Z,41.20
2018-08-23T03:17:12.188Z,42.57
2018-08-23T03:19:45.900Z,41.63
2018-08-23T03:22:13.844Z,40.90
2018-08-23T03:24:41.824Z,41.13
2018-08-23T03:27:09.771Z,41.90
2018-08-23T03:29:37.741Z,40.37
2018-08-23T03:32:05.724Z,42.93
2018-08-23T03:34:33.695Z,41.43
2018-08-23T03:37:01.656Z,41.10
2018-08-23T03:39:29.628Z,41.73
2018-08-23T03:41:57.599Z,41.23
2018-08-23T03:44:31.052Z,44.07
2018-08-23T03:46:59.136Z,43.70
2018-08-23T03:49:32.964Z,45.57
2018-08-23T03:52:01.109Z,45.10
2018-08-23T03:54:30.389Z,43.50
2018-08-23T03:57:10.257Z,42.93
2018-08-23T03:59:38.662Z,42.57
2018-08-23T04:02:06.624Z,40.97
2018-08-23T04:04:34.600Z,41.97
2018-08-23T04:07:02.592Z,40.97
2018-08-23T04:09:30.577Z,41.40
2018-08-23T04:11:58.557Z,41.73
2018-08-23T04:14:26.544Z,44.27
2018-08-23T04:16:54.572Z,45.83
2018-08-23T04:19:22.788Z,45.37
2018-08-23T04:21:51.092Z,46.60
2018-08-23T04:24:19.308Z,45.90
2018-08-23T04:26:47.577Z,47.77
2018-08-23T04:29:32.441Z,48.00
2018-08-23T04:32:02.173Z,46.40
2018-08-23T04:34:30.452Z,47.10
2018-08-23T04:36:58.654Z,45.77
2018-08-23T04:39:26.968Z,47.27
2018-08-23T04:42:01.332Z,45.57
2018-08-23T04:44:32.346Z,46.73
2018-08-23T04:47:00.765Z,46.53
2018-08-23T04:49:28.953Z,45.97
2018-08-23T04:51:57.214Z,46.97
2018-08-23T04:54:25.443Z,47.20
2018-08-23T04:56:53.702Z,48.33
2018-08-23T04:59:21.957Z,47.13
2018-08-23T05:01:50.178Z,46.70
2018-08-23T05:04:18.398Z,46.50
2018-08-23T05:06:46.698Z,45.63
2018-08-23T05:09:14.907Z,45.53
2018-08-23T05:11:43.089Z,45.47
2018-08-23T05:14:11.358Z,45.87
2018-08-23T05:16:39.519Z,46.97
2018-08-23T05:19:07.714Z,46.90
2018-08-23T05:21:35.946Z,45.57
2018-08-23T05:24:09.642Z,44.63
2018-08-23T05:26:37.870Z,46.47
2018-08-23T05:29:07.526Z,45.53
2018-08-23T05:31:35.962Z,46.53
2018-08-23T05:34:05.274Z,45.03
2018-08-23T05:36:33.241Z,46.57
2018-08-23T05:39:01.501Z,44.13
2018-08-23T05:41:29.458Z,44.93
2018-08-23T05:44:05.042Z,45.03
2018-08-23T05:46:38.140Z,45.60
2018-08-23T05:49:06.983Z,44.40
2018-08-23T05:51:38.871Z,45.30
2018-08-23T05:54:10.378Z,47.90
2018-08-23T05:56:38.611Z,45.10
2018-08-23T05:59:13.206Z,44.50
2018-08-23T06:01:41.322Z,45.47
2018-08-23T06:04:09.351Z,44.17
2018-08-23T06:06:37.511Z,45.43
2018-08-23T06:09:07.302Z,45.33
2018-08-23T06:11:35.282Z,44.03
2018-08-23T06:14:03.566Z,42.43
2018-08-23T06:16:38.719Z,43.37
2018-08-23T06:19:06.976Z,41.63
2018-08-23T06:21:35.227Z,40.83
2018-08-23T06:24:07.379Z,39.97
2018-08-23T06:26:51.937Z,40.60
2018-08-23T06:29:21.523Z,40.43
2018-08-23T06:31:56.315Z,40.57
2018-08-23T06:34:24.395Z,38.40
2018-08-23T06:36:52.979Z,35.67
2018-08-23T06:39:20.986Z,37.30
2018-08-23T06:41:48.970Z,33.73
2018-08-23T06:44:17.016Z,33.63
2018-08-23T06:46:45.244Z,36.63
2018-08-23T06:49:13.451Z,35.20
2018-08-23T06:51:55.053Z,33.37
2018-08-23T06:54:23.459Z,32.43
2018-08-23T06:56:51.432Z,32.70
2018-08-23T06:59:19.489Z,35.00
2018-08-23T07:01:47.496Z,30.90
2018-08-23T07:04:15.493Z,34.77
2018-08-23T07:06:43.480Z,32.63
2018-08-23T07:09:15.864Z,35.80
2018-08-23T07:11:43.960Z,36.47
2018-08-23T07:14:15.036Z,37.07
2018-08-23T07:16:44.440Z,35.40
2018-08-23T07:19:21.572Z,35.23
2018-08-23T07:21:50.018Z,37.67
2018-08-23T07:24:23.488Z,37.90
2018-08-23T07:26:51.503Z,38.23
2018-08-23T07:29:19.481Z,36.20
2018-08-23T07:31:53.193Z,37.67
2018-08-23T07:34:21.172Z,36.30
2018-08-23T07:36:49.125Z,35.17
2018-08-23T07:39:17.118Z,32.67
2018-08-23T07:41:45.305Z,34.67
2018-08-23T07:44:13.304Z,33.93
2018-08-23T07:46:41.256Z,33.07
2018-08-23T07:49:09.341Z,31.87
2018-08-23T07:51:37.308Z,30.10
2018-08-23T07:54:09.604Z,30.10
2018-08-23T07:56:37.641Z,29.87
2018-08-23T07:59:05.610Z,30.13
2018-08-23T08:01:34.576Z,29.27
2018-08-23T08:04:02.841Z,26.73
2018-08-23T08:06:31.104Z,25.87
2018-08-23T08:09:00.697Z,24.17
2018-08-23T08:11:33.188Z,22.33
2018-08-23T08:14:38.253Z,22.07
2018-08-23T08:17:08.644Z,21.87
2018-08-23T08:19:36.964Z,21.20
2018-08-23T08:22:05.025Z,21.50
2018-08-23T08:24:32.974Z,19.83
2018-08-23T08:27:01.008Z,19.63
2018-08-23T08:29:34.473Z,19.27
2018-08-23T08:32:02.435Z,21.17
2018-08-23T08:34:30.452Z,20.23
2018-08-23T08:36:58.632Z,20.60
2018-08-23T08:39:26.613Z,19.67
2018-08-23T08:41:54.675Z,18.93
2018-08-23T08:44:22.841Z,16.50
2018-08-23T08:46:51.517Z,16.40
2018-08-23T08:49:19.645Z,17.32
2018-08-23T08:51:48.174Z,17.63
2018-08-23T08:54:16.641Z,16.60
2018-08-23T08:56:46.074Z,17.60
2018-08-23T08:59:14.443Z,18.53
2018-08-23T09:01:42.643Z,18.15
2018-08-23T09:04:15.110Z,17.15
2018-08-23T09:06:44.466Z,17.30
2018-08-23T09:09:21.098Z,16.62
2018-08-23T09:11:49.058Z,17.37
2018-08-23T09:14:17.038Z,17.07
2018-08-23T09:16:45.014Z,17.20
2018-08-23T09:19:12.979Z,16.95
2018-08-23T09:21:40.934Z,18.25
2018-08-23T09:24:26.546Z,18.40
2018-08-23T09:26:55.098Z,20.52
2018-08-23T09:29:29.445Z,18.05
2018-08-23T09:32:01.892Z,19.10
2018-08-23T09:34:29.882Z,16.20
2018-08-23T09:36:57.874Z,19.80
2018-08-23T09:39:25.839Z,28.83
2018-08-23T09:41:53.819Z,26.65
2018-08-23T09:44:21.843Z,20.82
2018-08-23T09:46:55.199Z,17.95
2018-08-23T09:49:23.771Z,17.45
2018-08-23T09:51:51.774Z,15.85
2018-08-23T09:54:25.203Z,16.60
2018-08-23T09:56:53.189Z,16.83
2018-08-23T09:59:21.179Z,16.20
2018-08-23T10:01:54.814Z,14.40
2018-08-23T10:04:28.341Z,18.15
2018-08-23T10:07:01.791Z,16.23
2018-08-23T10:09:30.982Z,16.13
2018-08-23T10:12:04.471Z,15.90
2018-08-23T10:14:37.982Z,14.38
2018-08-23T10:17:11.322Z,14.20
2018-08-23T10:19:44.791Z,18.10
2018-08-23T10:22:17.714Z,17.85
2018-08-23T10:24:45.682Z,18.25
2018-08-23T10:27:13.703Z,15.90
2018-08-23T10:29:41.679Z,16.40
2018-08-23T10:32:09.646Z,16.62
2018-08-23T10:34:37.639Z,17.30
2018-08-23T10:37:05.733Z,15.83
2018-08-23T10:39:33.658Z,15.38
2018-08-23T10:42:01.623Z,16.32
2018-08-23T10:44:29.662Z,13.38
2018-08-23T10:46:57.778Z,20.43
2018-08-23T10:49:26.558Z,16.27
2018-08-23T10:51:54.563Z,16.45
2018-08-23T10:54:22.611Z,14.55
2018-08-23T10:56:50.572Z,13.68
2018-08-23T10:59:18.951Z,12.47
2018-08-23T11:01:46.916Z,14.35
2018-08-23T11:04:14.893Z,16.75
2018-08-23T11:06:48.311Z,23.87
2018-08-23T11:09:21.783Z,13.95
2018-08-23T11:11:49.783Z,14.65
2018-08-23T11:14:23.312Z,25.65
2018-08-23T11:16:56.944Z,26.90
2018-08-23T11:19:30.603Z,24.18
2018-08-23T11:21:58.893Z,16.30
2018-08-23T11:24:27.151Z,16.17
2018-08-23T11:26:55.412Z,13.40
2018-08-23T11:29:23.434Z,15.30
2018-08-23T11:31:51.548Z,15.55
2018-08-23T11:34:19.605Z,15.63
2018-08-23T11:36:47.572Z,14.15
2018-08-23T11:39:15.788Z,16.07
2018-08-23T11:41:43.999Z,16.73
2018-08-23T11:44:12.237Z,17.95
2018-08-23T11:46:40.493Z,18.05
2018-08-23T11:49:08.690Z,15.85
2018-08-23T11:51:37.009Z,16.10
2018-08-23T11:54:05.260Z,17.15
2018-08-23T11:56:33.472Z,16.62
2018-08-23T11:59:01.732Z,16.87
2018-08-23T12:01:29.696Z,17.45
2018-08-23T12:03:57.952Z,16.90
2018-08-23T12:06:26.266Z,16.37
2018-08-23T12:08:54.480Z,17.30
2018-08-23T12:11:22.752Z,17.98
2018-08-23T12:13:51.428Z,18.40
2018-08-23T12:16:19.526Z,17.52
2018-08-23T12:18:47.725Z,14.98
2018-08-23T12:21:15.840Z,15.95
2018-08-23T12:23:43.788Z,14.63
2018-08-23T12:26:11.758Z,14.47
2018-08-23T12:28:45.220Z,14.07
2018-08-23T12:31:13.213Z,10.78
2018-08-23T12:33:41.190Z,10.48
2018-08-23T12:36:09.748Z,11.45
2018-08-23T12:38:43.259Z,14.18
2018-08-23T12:41:16.732Z,13.08
2018-08-23T12:43:47.302Z,11.30
2018-08-23T12:46:15.916Z,12.20
2018-08-23T12:48:44.329Z,10.68
2018-08-23T12:51:12.667Z,13.43
2018-08-23T12:53:40.871Z,11.10
2018-08-23T12:56:09.243Z,13.68
2018-08-23T12:58:37.511Z,12.30
2018-08-23T13:01:05.744Z,12.37
2018-08-23T13:03:33.869Z,19.67
2018-08-23T13:06:01.800Z,13.08
2018-08-23T13:08:29.804Z,12.85
2018-08-23T13:10:57.854Z,12.00
2018-08-23T13:13:25.828Z,12.47
2018-08-23T13:15:53.817Z,13.38
2018-08-23T14:37:09.957Z,12.78
2018-08-23T14:39:38.149Z,12.07
2018-08-23T14:42:06.441Z,14.15
2018-08-23T14:44:34.773Z,13.30
2018-08-23T14:47:08.164Z,11.53
2018-08-23T14:49:36.265Z,11.93
2018-08-23T14:52:05.976Z,13.60
2018-08-23T14:54:40.428Z,12.80
2018-08-23T14:57:14.119Z,12.90
2018-08-23T14:59:42.965Z,10.75
2018-08-23T15:02:11.204Z,12.48
2018-08-23T15:04:39.445Z,13.58
2018-08-23T15:07:07.733Z,11.88
2018-08-23T15:09:35.970Z,15.88
2018-08-23T15:12:03.996Z,14.35
2018-08-23T15:14:32.254Z,14.60
2018-08-23T15:17:00.958Z,15.05
2018-08-23T15:19:29.381Z,14.05
2018-08-23T15:21:57.664Z,12.63
2018-08-23T15:24:25.941Z,14.13
2018-08-23T15:26:54.257Z,13.93
2018-08-23T15:29:22.597Z,13.00
2018-08-23T15:31:50.869Z,13.22
2018-08-23T15:34:19.113Z,13.45
2018-08-23T15:36:47.441Z,13.28
2018-08-23T15:39:16.562Z,13.85
2018-08-23T15:41:44.891Z,13.10
2018-08-23T15:44:14.036Z,14.73
2018-08-23T15:46:44.343Z,14.13
2018-08-23T15:49:12.411Z,15.43
2018-08-23T15:51:41.340Z,14.35
2018-08-23T15:54:09.803Z,12.53
2018-08-23T15:56:38.716Z,12.55
2018-08-23T15:59:06.991Z,13.55
2018-08-23T16:01:35.344Z,13.00
2018-08-23T16:04:03.684Z,13.40
2018-08-23T16:06:32.041Z,12.82
2018-08-23T16:09:00.295Z,12.43
2018-08-23T16:11:28.531Z,13.38
2018-08-23T16:13:56.836Z,11.55
2018-08-23T16:16:30.433Z,13.95
2018-08-23T16:19:03.996Z,12.70
2018-08-23T16:21:36.383Z,13.62
2018-08-23T16:24:04.472Z,12.80
2018-08-23T16:26:38.019Z,12.90
2018-08-23T16:29:06.992Z,13.04
2018-08-23T16:31:34.972Z,14.03
2018-08-23T16:34:02.938Z,12.73
2018-08-23T16:36:31.073Z,14.47
2018-08-23T16:38:59.101Z,15.08
2018-08-23T16:41:27.141Z,15.30
2018-08-23T16:43:55.141Z,14.75
2018-08-23T16:46:23.134Z,14.87
2018-08-23T16:48:51.219Z,16.02
2018-08-23T16:51:19.262Z,16.05
2018-08-23T16:53:47.514Z,27.98
2018-08-23T16:56:15.827Z,16.13
2018-08-23T16:58:44.174Z,16.20
2018-08-23T17:01:12.155Z,15.70
2018-08-23T17:03:40.211Z,14.55
2018-08-23T17:06:08.363Z,13.90
2018-08-23T17:08:36.663Z,13.53
2018-08-23T17:11:04.943Z,14.57
2018-08-23T17:13:36.154Z,15.13
2018-08-23T17:16:10.268Z,14.33
2018-08-23T17:18:39.389Z,16.50
2018-08-23T17:21:07.628Z,15.33
2018-08-23T17:23:35.903Z,14.53
2018-08-23T17:26:04.204Z,14.73
2018-08-23T17:28:32.448Z,12.70
2018-08-23T17:31:01.280Z,12.70
2018-08-23T17:33:29.552Z,12.23
2018-08-23T17:35:57.811Z,13.20
2018-08-23T17:38:27.660Z,12.73
2018-08-23T17:40:55.716Z,12.93
2018-08-23T17:43:23.728Z,13.10
2018-08-23T17:45:52.604Z,12.90
2018-08-23T17:48:21.110Z,12.30
2018-08-23T17:50:49.087Z,12.30
2018-08-23T17:53:17.127Z,12.87
2018-08-23T17:55:45.140Z,12.30
2018-08-23T17:58:13.400Z,14.03
2018-08-23T18:00:41.744Z,12.60
2018-08-23T18:03:09.993Z,14.13
2018-08-23T18:05:44.500Z,14.10
2018-08-23T18:08:12.500Z,15.00
2018-08-23T18:10:40.512Z,13.77
2018-08-23T18:13:08.609Z,14.07
2018-08-23T18:15:42.111Z,13.30
2018-08-23T18:18:10.155Z,13.87
2018-08-23T18:20:38.145Z,13.67
2018-08-23T18:23:06.972Z,13.97
2018-08-23T18:25:35.018Z,14.53
2018-08-23T18:28:03.449Z,14.40
2018-08-23T18:30:31.580Z,14.17
2018-08-23T18:32:59.585Z,13.17
2018-08-23T18:35:27.628Z,11.87
2018-08-23T18:37:55.721Z,11.87
2018-08-23T18:40:23.825Z,11.57
2018-08-23T18:42:51.796Z,11.73
2018-08-23T18:45:19.848Z,12.67
2018-08-23T18:47:47.877Z,11.60
2018-08-23T18:50:15.897Z,12.57
2018-08-23T18:52:43.973Z,13.20
2018-08-23T18:55:11.962Z,12.10
2018-08-23T18:57:40.014Z,11.27
2018-08-23T19:00:08.262Z,12.13
2018-08-23T19:02:36.105Z,12.17
2018-08-23T19:05:04.201Z,11.23
2018-08-23T19:07:37.801Z,12.60
2018-08-23T19:10:05.887Z,13.40
2018-08-23T19:12:34.071Z,12.13
2018-08-23T19:15:02.078Z,12.33
2018-08-23T19:17:34.160Z,13.13
2018-08-23T19:20:02.227Z,12.57
2018-08-23T19:22:30.511Z,14.37
2018-08-23T19:24:58.903Z,13.07
2018-08-23T19:27:27.206Z,14.23
2018-08-23T19:29:55.493Z,14.57
2018-08-23T19:32:23.781Z,14.73
2018-08-23T19:34:52.239Z,12.37
2018-08-23T19:37:21.358Z,13.77
2018-08-23T19:39:49.677Z,13.00
2018-08-23T19:42:17.729Z,14.23
2018-08-23T19:44:51.133Z,13.93
2018-08-23T19:47:24.570Z,13.03
2018-08-23T19:49:56.882Z,12.97
2018-08-23T19:52:25.044Z,12.83
2018-08-23T19:54:53.262Z,12.87
2018-08-23T19:57:21.474Z,13.03
2018-08-23T19:59:49.512Z,13.27
2018-08-23T20:02:17.541Z,11.90
2018-08-23T20:04:45.582Z,12.80
2018-08-23T20:07:14.607Z,12.80
2018-08-23T20:09:42.605Z,11.53
2018-08-23T20:12:11.209Z,12.43
2018-08-23T20:14:39.286Z,12.50
2018-08-23T20:17:08.015Z,12.60
2018-08-23T20:19:36.022Z,12.70
2018-08-23T20:22:06.082Z,12.63
2018-08-23T20:24:34.115Z,13.63
2018-08-23T20:27:02.118Z,13.13
2018-08-23T20:29:30.126Z,13.53
2018-08-23T20:31:58.182Z,12.70
2018-08-23T20:34:26.188Z,12.37
2018-08-23T20:36:54.215Z,12.23
2018-08-23T20:39:22.385Z,12.40
2018-08-23T20:41:50.299Z,11.00
2018-08-23T20:44:18.336Z,10.53
2018-08-23T20:46:46.346Z,10.00
2018-08-23T20:49:14.391Z,10.13
2018-08-23T20:51:42.407Z,10.20
2018-08-23T20:54:10.403Z,10.97
2018-08-23T20:56:38.391Z,11.13
2018-08-23T20:59:06.443Z,11.00
2018-08-23T21:01:34.415Z,9.93
2018-08-23T21:04:02.478Z,9.40
2018-08-23T21:06:30.488Z,10.10
2018-08-23T21:08:58.516Z,9.97
2018-08-23T21:11:26.535Z,9.87
2018-08-23T21:13:54.640Z,9.70
2018-08-23T21:16:22.680Z,10.27
2018-08-23T21:18:50.628Z,10.33
2018-08-23T21:21:18.631Z,10.30
2018-08-23T21:23:46.615Z,9.53
2018-08-23T21:26:14.607Z,9.60
2018-08-23T21:28:42.600Z,9.50
2018-08-23T21:31:10.588Z,8.97
2018-08-23T21:33:38.558Z,8.60
2018-08-23T21:36:06.563Z,9.20
2018-08-23T21:38:34.575Z,8.67
2018-08-23T21:41:02.560Z,8.43
2018-08-23T21:43:30.677Z,8.73
2018-08-23T21:45:58.720Z,9.47
2018-08-23T21:48:26.691Z,9.30
2018-08-23T21:50:54.700Z,8.57
2018-08-23T21:53:22.681Z,9.03
2018-08-23T21:55:50.651Z,8.37
2018-08-23T21:58:18.656Z,8.20
2018-08-23T22:00:52.034Z,8.70
2018-08-23T22:03:20.029Z,8.50
2018-08-23T22:05:48.004Z,8.83
2018-08-23T22:08:15.964Z,7.50
2018-08-23T22:10:44.009Z,7.63
2018-08-23T22:13:11.968Z,7.90
2018-08-23T22:15:46.017Z,7.13
2018-08-23T22:18:14.209Z,6.90
2018-08-23T22:20:42.292Z,7.27
2018-08-23T22:23:10.336Z,7.43
2018-08-23T22:25:38.682Z,7.03
2018-08-23T22:28:06.885Z,7.67
2018-08-23T22:30:35.040Z,6.30
2018-08-23T22:33:03.079Z,6.50
2018-08-23T22:35:31.103Z,6.50
2018-08-23T22:37:59.187Z,6.43
2018-08-23T22:40:27.183Z,6.20
2018-08-23T22:42:55.172Z,6.00
2018-08-23T22:45:23.381Z,5.57
2018-08-23T22:47:51.427Z,5.70
2018-08-23T22:50:19.408Z,5.53
2018-08-23T22:52:47.401Z,5.50
2018-08-23T22:55:15.393Z,5.27
2018-08-23T22:57:43.413Z,5.40
2018-08-23T23:00:11.425Z,5.03
2018-08-23T23:02:40.428Z,5.10
2018-08-23T23:05:08.795Z,4.57
2018-08-23T23:07:36.896Z,4.90
2018-08-23T23:10:05.337Z,4.00
2018-08-23T23:12:33.328Z,4.53
2018-08-23T23:15:01.393Z,4.33
2018-08-23T23:17:29.389Z,4.50
2018-08-23T23:19:57.389Z,4.93
2018-08-23T23:22:25.380Z,4.80
2018-08-23T23:24:59.000Z,3.67
2018-08-23T23:27:27.016Z,3.53
2018-08-23T23:29:55.000Z,3.67
2018-08-23T23:32:22.976Z,3.30
2018-08-23T23:34:50.985Z,3.07
2018-08-23T23:37:19.001Z,2.70
2018-08-23T23:39:46.995Z,2.67
2018-08-23T23:42:15.033Z,3.10
2018-08-23T23:44:43.107Z,3.17
2018-08-23T23:47:10.973Z,2.97
2018-08-23T23:49:38.956Z,4.70
2018-08-23T23:52:07.061Z,3.00
2018-08-23T23:54:35.088Z,2.80
2018-08-23T23:57:03.375Z,2.27
2018-08-23T23:59:31.605Z,2.00
